Estación Meteorológica Peña el Pijo (Robertgarden) [ 02/03/23 04:01:01 CET ]

Fecha Hora Presion(HPa) Temp (°C) Humedad % Rocio (°C) Viento ( m/s) Direccion Lluvia 1Hora(mm) Lluvia 24H(mm) LLuvia Total(mm)
2012-Nov-19 01:01:12 1006.000 4.4 92 3.2         178.19
2012-Nov-19 02:01:53 1006.200 4.9 93 3.9         178.19
2012-Nov-19 03:01:50 1006.300 4.9 93 3.9         178.19
2012-Nov-19 04:08:11 1006.100 5.3 93 4.2         178.19
2012-Nov-19 05:07:06 1006.200 3.8 93 2.8         178.19
2012-Nov-19 06:01:13 1006.800 4.3 93 3.2         178.19
2012-Nov-19 07:01:16 1006.900 4.5 92 3.3         178.19
2012-Nov-19 08:01:17 1007.200 4.7 92 3.5         178.19
2012-Nov-19 09:01:16 1007.500 5.1 93 4.0         178.19
2012-Nov-19 10:01:16 1007.900 9.9 85 7.5         178.19
2012-Nov-19 11:01:16 1008.100 13.3 72 8.3         178.19
2012-Nov-19 12:01:12 1007.800 15.8 57 7.3         178.19
2012-Nov-19 13:01:15 1007.800 15.8 54 6.5         178.19
2012-Nov-19 14:01:12 1007.400 16.1 53 6.5         178.19
2012-Nov-19 15:01:14 1007.400 14.6 57 6.2         178.19
2012-Nov-19 16:01:16 1007.600 13.9 57 5.5         178.19
2012-Nov-19 17:01:13 1008.000 12.9 65 6.5         178.19
2012-Nov-19 18:01:14 1008.600 11.3 72 6.5         178.19
2012-Nov-19 19:01:14 1009.100 8.5 77 4.7         178.19
2012-Nov-19 20:01:14 1009.600 6.2 81 3.2         178.19
2012-Nov-19 21:01:14 1009.900 4.9 85 2.5         178.19
2012-Nov-19 22:01:14 1010.200 4.1 87 2.1         178.19
2012-Nov-19 23:01:13 1010.200 3.1 89 1.4         178.19

Temperatura Máxima:16°    Temperatura Mínima:
Presión Máxima:1010.200 Hpa    Presión Mínima:1006.000 Hpa


Volver